sensor_id;sensor_type;location;lat;lon;timestamp;pressure;altitude;pressure_sealevel;temperature;humidity
49044;BME280;34860;48.066;14.124;2023-08-08T00:01:53;96821.38;;;14.33;64.51
49044;BME280;34860;48.066;14.124;2023-08-08T00:04:41;96817.78;;;14.32;64.42
49044;BME280;34860;48.066;14.124;2023-08-08T00:07:29;96817.78;;;14.32;64.50
49044;BME280;34860;48.066;14.124;2023-08-08T00:10:18;96820.13;;;14.34;64.41
49044;BME280;34860;48.066;14.124;2023-08-08T00:13:07;96818.88;;;14.35;64.39
49044;BME280;34860;48.066;14.124;2023-08-08T00:15:55;96820.44;;;14.36;64.44
49044;BME280;34860;48.066;14.124;2023-08-08T00:18:43;96812.06;;;14.36;64.36
49044;BME280;34860;48.066;14.124;2023-08-08T00:21:31;96806.03;;;14.38;64.33
49044;BME280;34860;48.066;14.124;2023-08-08T00:24:19;96810.34;;;14.39;64.21
49044;BME280;34860;48.066;14.124;2023-08-08T00:27:07;96811.91;;;14.40;64.22
49044;BME280;34860;48.066;14.124;2023-08-08T00:29:57;96803.53;;;14.40;64.22
49044;BME280;34860;48.066;14.124;2023-08-08T00:32:45;96805.88;;;14.41;64.16
49044;BME280;34860;48.066;14.124;2023-08-08T00:35:33;96800.28;;;14.41;64.27
49044;BME280;34860;48.066;14.124;2023-08-08T00:38:22;96796.22;;;14.42;64.15
49044;BME280;34860;48.066;14.124;2023-08-08T00:41:10;96803.84;;;14.42;64.17
49044;BME280;34860;48.066;14.124;2023-08-08T00:43:58;96800.28;;;14.41;64.25
49044;BME280;34860;48.066;14.124;2023-08-08T00:46:48;96796.22;;;14.42;64.31
49044;BME280;34860;48.066;14.124;2023-08-08T00:49:36;96795.44;;;14.42;64.35
49044;BME280;34860;48.066;14.124;2023-08-08T00:52:25;96788.63;;;14.43;64.03
49044;BME280;34860;48.066;14.124;2023-08-08T00:55:14;96797.78;;;14.43;64.12
49044;BME280;34860;48.066;14.124;2023-08-08T00:58:03;96796.88;;;14.46;64.08
49044;BME280;34860;48.066;14.124;2023-08-08T01:00:52;96795.31;;;14.45;64.20
49044;BME280;34860;48.066;14.124;2023-08-08T01:03:43;96787.72;;;14.46;64.00
49044;BME280;34860;48.066;14.124;2023-08-08T01:06:35;96784.13;;;14.45;64.06
49044;BME280;34860;48.066;14.124;2023-08-08T01:09:30;96795.31;;;14.45;64.22
49044;BME280;34860;48.066;14.124;2023-08-08T01:12:23;96789.72;;;14.45;64.01
49044;BME280;34860;48.066;14.124;2023-08-08T01:15:13;96790.06;;;14.47;63.95
49044;BME280;34860;48.066;14.124;2023-08-08T01:18:02;96793.31;;;14.46;64.01
49044;BME280;34860;48.066;14.124;2023-08-08T01:20:53;96796.41;;;14.48;64.27
49044;BME280;34860;48.066;14.124;2023-08-08T01:23:46;96799.66;;;14.46;64.06
49044;BME280;34860;48.066;14.124;2023-08-08T01:26:36;96794.38;;;14.48;64.04
49044;BME280;34860;48.066;14.124;2023-08-08T01:29:24;96809.16;;;14.49;63.81
49044;BME280;34860;48.066;14.124;2023-08-08T01:32:12;96811.97;;;14.49;64.10
49044;BME280;34860;48.066;14.124;2023-08-08T01:35:01;96812.72;;;14.49;63.92
49044;BME280;34860;48.066;14.124;2023-08-08T01:37:52;96807.00;;;14.53;63.76
49044;BME280;34860;48.066;14.124;2023-08-08T01:40:43;96805.13;;;14.50;63.81
49044;BME280;34860;48.066;14.124;2023-08-08T01:43:35;96799.53;;;14.50;63.86
49044;BME280;34860;48.066;14.124;2023-08-08T01:46:25;96798.75;;;14.49;63.92
49044;BME280;34860;48.066;14.124;2023-08-08T01:49:14;96802.31;;;14.50;63.94
49044;BME280;34860;48.066;14.124;2023-08-08T01:52:03;96796.72;;;14.50;63.81
49044;BME280;34860;48.066;14.124;2023-08-08T01:54:52;96799.53;;;14.50;63.93
49044;BME280;34860;48.066;14.124;2023-08-08T01:57:40;96803.13;;;14.50;63.87
49044;BME280;34860;48.066;14.124;2023-08-08T02:00:30;96797.97;;;14.49;63.93
49044;BME280;34860;48.066;14.124;2023-08-08T02:03:18;96795.19;;;14.49;64.03
49044;BME280;34860;48.066;14.124;2023-08-08T02:06:06;96794.38;;;14.48;64.03
49044;BME280;34860;48.066;14.124;2023-08-08T02:08:54;96799.22;;;14.48;64.10
49044;BME280;34860;48.066;14.124;2023-08-08T02:11:42;96801.25;;;14.47;63.85
49044;BME280;34860;48.066;14.124;2023-08-08T02:14:30;96794.06;;;14.46;64.12
49044;BME280;34860;48.066;14.124;2023-08-08T02:17:19;96797.66;;;14.47;64.06
49044;BME280;34860;48.066;14.124;2023-08-08T02:20:08;96799.66;;;14.46;63.96
49044;BME280;34860;48.066;14.124;2023-08-08T02:22:58;96792.19;;;14.43;64.19
49044;BME280;34860;48.066;14.124;2023-08-08T02:25:46;96797.47;;;14.41;64.14
49044;BME280;34860;48.066;14.124;2023-08-08T02:28:35;96794.38;;;14.39;64.04
49044;BME280;34860;48.066;14.124;2023-08-08T02:31:23;96795.75;;;14.34;64.37
49044;BME280;34860;48.066;14.124;2023-08-08T02:34:12;96787.94;;;14.29;64.39
49044;BME280;34860;48.066;14.124;2023-08-08T02:37:00;96785.44;;;14.22;64.50
49044;BME280;34860;48.066;14.124;2023-08-08T02:39:49;96776.09;;;14.16;64.46
49044;BME280;34860;48.066;14.124;2023-08-08T02:42:37;96777.00;;;14.13;64.62
49044;BME280;34860;48.066;14.124;2023-08-08T02:45:26;96775.56;;;14.08;64.61
49044;BME280;34860;48.066;14.124;2023-08-08T02:48:15;96776.50;;;14.05;64.67
49044;BME280;34860;48.066;14.124;2023-08-08T02:51:04;96780.19;;;14.02;64.59
49044;BME280;34860;48.066;14.124;2023-08-08T02:53:53;96780.78;;;13.97;64.79
49044;BME280;34860;48.066;14.124;2023-08-08T02:56:41;96780.16;;;13.93;64.79
49044;BME280;34860;48.066;14.124;2023-08-08T02:59:31;96787.44;;;13.90;64.81
49044;BME280;34860;48.066;14.124;2023-08-08T03:02:22;96777.94;;;13.88;64.64
49044;BME280;34860;48.066;14.124;2023-08-08T03:05:11;96781.19;;;13.86;64.66
49044;BME280;34860;48.066;14.124;2023-08-08T03:08:01;96780.41;;;13.86;64.86
49044;BME280;34860;48.066;14.124;2023-08-08T03:10:49;96782.56;;;13.81;64.75
49044;BME280;34860;48.066;14.124;2023-08-08T03:13:37;96786.59;;;13.80;64.71
49044;BME280;34860;48.066;14.124;2023-08-08T03:16:25;96779.13;;;13.77;64.72
49044;BME280;34860;48.066;14.124;2023-08-08T03:19:14;96785.19;;;13.76;64.95
49044;BME280;34860;48.066;14.124;2023-08-08T03:22:02;96782.38;;;13.76;64.81
49044;BME280;34860;48.066;14.124;2023-08-08T03:24:54;96777.38;;;13.71;64.86
49044;BME280;34860;48.066;14.124;2023-08-08T03:27:42;96780.94;;;13.71;64.75
49044;BME280;34860;48.066;14.124;2023-08-08T03:30:36;96777.84;;;13.69;64.73
49044;BME280;34860;48.066;14.124;2023-08-08T03:33:25;96778.75;;;13.66;64.90
49044;BME280;34860;48.066;14.124;2023-08-08T03:36:13;96785.56;;;13.65;64.94
49044;BME280;34860;48.066;14.124;2023-08-08T03:39:02;96778.41;;;13.64;64.88
49044;BME280;34860;48.066;14.124;2023-08-08T03:41:56;96775.28;;;13.62;64.96
49044;BME280;34860;48.066;14.124;2023-08-08T03:44:44;96774.22;;;13.59;64.95
49044;BME280;34860;48.066;14.124;2023-08-08T03:47:33;96779.78;;;13.59;64.89
49044;BME280;34860;48.066;14.124;2023-08-08T03:50:21;96781.78;;;13.59;64.99
49044;BME280;34860;48.066;14.124;2023-08-08T03:53:09;96786.75;;;13.55;64.98
49044;BME280;34860;48.066;14.124;2023-08-08T03:55:57;96787.19;;;13.53;65.07
49044;BME280;34860;48.066;14.124;2023-08-08T03:58:46;96776.47;;;13.52;65.09
49044;BME280;34860;48.066;14.124;2023-08-08T04:01:35;96774.13;;;13.50;65.31
49044;BME280;34860;48.066;14.124;2023-08-08T04:04:24;96778.59;;;13.48;65.10
49044;BME280;34860;48.066;14.124;2023-08-08T04:07:12;96783.09;;;13.45;65.07
49044;BME280;34860;48.066;14.124;2023-08-08T04:10:00;96770.06;;;13.42;65.31
49044;BME280;34860;48.066;14.124;2023-08-08T04:12:48;96790.38;;;13.42;65.22
49044;BME280;34860;48.066;14.124;2023-08-08T04:15:38;96777.75;;;13.38;65.27
49044;BME280;34860;48.066;14.124;2023-08-08T04:18:26;96780.22;;;13.36;65.31
49044;BME280;34860;48.066;14.124;2023-08-08T04:21:14;96783.78;;;13.36;65.39
49044;BME280;34860;48.066;14.124;2023-08-08T04:24:02;96781.47;;;13.35;65.42
49044;BME280;34860;48.066;14.124;2023-08-08T04:26:51;96778.34;;;13.33;65.47
49044;BME280;34860;48.066;14.124;2023-08-08T04:29:39;96785.47;;;13.34;65.54
49044;BME280;34860;48.066;14.124;2023-08-08T04:32:28;96780.31;;;13.32;65.37
49044;BME280;34860;48.066;14.124;2023-08-08T04:35:17;96785.13;;;13.32;65.50
49044;BME280;34860;48.066;14.124;2023-08-08T04:38:05;96783.59;;;13.31;65.43
49044;BME280;34860;48.066;14.124;2023-08-08T04:40:53;96786.38;;;13.31;65.67
49044;BME280;34860;48.066;14.124;2023-08-08T04:43:41;96796.75;;;13.30;65.72
49044;BME280;34860;48.066;14.124;2023-08-08T04:46:29;96788.38;;;13.30;65.68
49044;BME280;34860;48.066;14.124;2023-08-08T04:49:18;96790.38;;;13.30;65.59
49044;BME280;34860;48.066;14.124;2023-08-08T04:52:06;96797.53;;;13.31;65.61
49044;BME280;34860;48.066;14.124;2023-08-08T04:54:54;96795.19;;;13.29;65.62
49044;BME280;34860;48.066;14.124;2023-08-08T04:57:42;96795.97;;;13.30;65.59
49044;BME280;34860;48.066;14.124;2023-08-08T05:00:30;96801.53;;;13.30;65.69
49044;BME280;34860;48.066;14.124;2023-08-08T05:03:19;96804.34;;;13.30;65.72
49044;BME280;34860;48.066;14.124;2023-08-08T05:06:08;96800.69;;;13.33;65.77
49044;BME280;34860;48.066;14.124;2023-08-08T05:08:56;96813.03;;;13.32;65.87
49044;BME280;34860;48.066;14.124;2023-08-08T05:11:44;96820.97;;;13.33;65.92
49044;BME280;34860;48.066;14.124;2023-08-08T05:14:32;96823.31;;;13.35;65.67
49044;BME280;34860;48.066;14.124;2023-08-08T05:17:20;96818.50;;;13.35;65.55
49044;BME280;34860;48.066;14.124;2023-08-08T05:20:09;96809.22;;;13.38;65.58
49044;BME280;34860;48.066;14.124;2023-08-08T05:22:59;96810.03;;;13.39;65.65
49044;BME280;34860;48.066;14.124;2023-08-08T05:25:47;96814.72;;;13.42;65.61
49044;BME280;34860;48.066;14.124;2023-08-08T05:28:35;96811.03;;;13.45;65.53
49044;BME280;34860;48.066;14.124;2023-08-08T05:31:23;96806.06;;;13.49;65.51
49044;BME280;34860;48.066;14.124;2023-08-08T05:34:11;96808.28;;;13.54;65.57
49044;BME280;34860;48.066;14.124;2023-08-08T05:36:59;96801.03;;;13.57;65.62
49044;BME280;34860;48.066;14.124;2023-08-08T05:39:57;96797.31;;;13.60;65.34
49044;BME280;34860;48.066;14.124;2023-08-08T05:42:45;96792.38;;;13.64;65.41
49044;BME280;34860;48.066;14.124;2023-08-08T05:45:34;96798.47;;;13.72;65.57
49044;BME280;34860;48.066;14.124;2023-08-08T05:48:21;96794.00;;;13.74;65.62
49044;BME280;34860;48.066;14.124;2023-08-08T05:51:09;96804.59;;;13.79;65.62
49044;BME280;34860;48.066;14.124;2023-08-08T05:53:58;96809.25;;;13.83;65.63
49044;BME280;34860;48.066;14.124;2023-08-08T05:56:49;96809.94;;;13.87;65.79
49044;BME280;34860;48.066;14.124;2023-08-08T05:59:38;96816.16;;;13.91;65.49
49044;BME280;34860;48.066;14.124;2023-08-08T06:02:26;96822.84;;;13.93;65.68
49044;BME280;34860;48.066;14.124;2023-08-08T06:05:16;96809.19;;;13.95;65.67
49044;BME280;34860;48.066;14.124;2023-08-08T06:08:04;96822.25;;;13.98;65.82
49044;BME280;34860;48.066;14.124;2023-08-08T06:10:58;96820.56;;;14.01;65.42
49044;BME280;34860;48.066;14.124;2023-08-08T06:13:48;96833.63;;;14.04;65.53
49044;BME280;34860;48.066;14.124;2023-08-08T06:16:36;96826.34;;;14.07;65.49
49044;BME280;34860;48.066;14.124;2023-08-08T06:19:24;96832.28;;;14.09;65.47
49044;BME280;34860;48.066;14.124;2023-08-08T06:22:13;96832.91;;;14.13;65.47
49044;BME280;34860;48.066;14.124;2023-08-08T06:25:01;96840.81;;;14.14;65.42
49044;BME280;34860;48.066;14.124;2023-08-08T06:27:50;96833.88;;;14.19;65.37
49044;BME280;34860;48.066;14.124;2023-08-08T06:30:41;96824.56;;;14.22;65.46
49044;BME280;34860;48.066;14.124;2023-08-08T06:33:29;96831.59;;;14.27;65.31
49044;BME280;34860;48.066;14.124;2023-08-08T06:36:17;96827.53;;;14.28;65.34
49044;BME280;34860;48.066;14.124;2023-08-08T06:39:05;96819.03;;;14.31;65.12
49044;BME280;34860;48.066;14.124;2023-08-08T06:41:53;96822.44;;;14.35;65.29
49044;BME280;34860;48.066;14.124;2023-08-08T06:44:51;96813.94;;;14.39;65.20
49044;BME280;34860;48.066;14.124;2023-08-08T06:47:40;96828.56;;;14.43;65.16
49044;BME280;34860;48.066;14.124;2023-08-08T06:50:28;96817.56;;;14.49;65.13
49044;BME280;34860;48.066;14.124;2023-08-08T06:53:17;96812.59;;;14.53;65.06
49044;BME280;34860;48.066;14.124;2023-08-08T06:56:05;96817.13;;;14.60;65.05
49044;BME280;34860;48.066;14.124;2023-08-08T06:58:53;96821.34;;;14.64;64.81
49044;BME280;34860;48.066;14.124;2023-08-08T07:01:41;96822.31;;;14.70;64.82
49044;BME280;34860;48.066;14.124;2023-08-08T07:04:31;96820.47;;;14.77;64.70
49044;BME280;34860;48.066;14.124;2023-08-08T07:07:19;96823.00;;;14.84;64.79
49044;BME280;34860;48.066;14.124;2023-08-08T07:10:07;96823.16;;;14.89;64.41
49044;BME280;34860;48.066;14.124;2023-08-08T07:12:56;96828.47;;;14.97;64.42
49044;BME280;34860;48.066;14.124;2023-08-08T07:15:44;96828.94;;;15.04;64.38
49044;BME280;34860;48.066;14.124;2023-08-08T07:18:32;96826.16;;;15.14;64.20
49044;BME280;34860;48.066;14.124;2023-08-08T07:21:21;96813.56;;;15.18;63.92
49044;BME280;34860;48.066;14.124;2023-08-08T07:24:09;96816.53;;;15.24;63.84
49044;BME280;34860;48.066;14.124;2023-08-08T07:26:59;96807.53;;;15.29;63.89
49044;BME280;34860;48.066;14.124;2023-08-08T07:29:47;96808.47;;;15.35;63.91
49044;BME280;34860;48.066;14.124;2023-08-08T07:32:35;96805.34;;;15.42;63.74
49044;BME280;34860;48.066;14.124;2023-08-08T07:35:23;96815.00;;;15.51;63.74
49044;BME280;34860;48.066;14.124;2023-08-08T07:38:13;96811.44;;;15.59;63.52
49044;BME280;34860;48.066;14.124;2023-08-08T07:41:02;96810.16;;;15.70;63.40
49044;BME280;34860;48.066;14.124;2023-08-08T07:43:50;96801.78;;;15.79;63.31
49044;BME280;34860;48.066;14.124;2023-08-08T07:46:38;96796.16;;;15.88;63.00
49044;BME280;34860;48.066;14.124;2023-08-08T07:49:26;96799.25;;;16.00;63.08
49044;BME280;34860;48.066;14.124;2023-08-08T07:52:14;96808.25;;;16.13;62.86
49044;BME280;34860;48.066;14.124;2023-08-08T07:55:04;96789.06;;;16.21;62.71
49044;BME280;34860;48.066;14.124;2023-08-08T07:57:53;96798.22;;;16.30;62.58
49044;BME280;34860;48.066;14.124;2023-08-08T08:00:41;96800.84;;;16.43;62.38
49044;BME280;34860;48.066;14.124;2023-08-08T08:03:29;96799.56;;;16.53;62.38
49044;BME280;34860;48.066;14.124;2023-08-08T08:06:17;96789.06;;;16.63;62.24
49044;BME280;34860;48.066;14.124;2023-08-08T08:09:05;96782.94;;;16.74;61.98
49044;BME280;34860;48.066;14.124;2023-08-08T08:11:55;96788.03;;;16.85;61.85
49044;BME280;34860;48.066;14.124;2023-08-08T08:14:43;96780.38;;;16.95;61.62
49044;BME280;34860;48.066;14.124;2023-08-08T08:17:31;96796.38;;;17.03;61.46
49044;BME280;34860;48.066;14.124;2023-08-08T08:20:19;96791.00;;;17.15;61.55
49044;BME280;34860;48.066;14.124;2023-08-08T08:23:08;96791.41;;;17.22;61.27
49044;BME280;34860;48.066;14.124;2023-08-08T08:25:56;96783.69;;;17.32;61.17
49044;BME280;34860;48.066;14.124;2023-08-08T08:28:46;96783.91;;;17.43;61.13
49044;BME280;34860;48.066;14.124;2023-08-08T08:31:34;96788.97;;;17.54;60.95
49044;BME280;34860;48.066;14.124;2023-08-08T08:34:24;96782.03;;;17.65;60.90
49044;BME280;34860;48.066;14.124;2023-08-08T08:37:12;96772.75;;;17.73;60.71
49044;BME280;34860;48.066;14.124;2023-08-08T08:40:01;96767.50;;;17.81;60.60
49044;BME280;34860;48.066;14.124;2023-08-08T08:42:51;96765.91;;;17.89;60.51
49044;BME280;34860;48.066;14.124;2023-08-08T08:45:49;96764.25;;;17.97;60.56
49044;BME280;34860;48.066;14.124;2023-08-08T08:48:38;96774.63;;;18.06;60.34
49044;BME280;34860;48.066;14.124;2023-08-08T08:51:26;96760.75;;;18.18;60.23
49044;BME280;34860;48.066;14.124;2023-08-08T08:54:14;96755.53;;;18.25;59.95
49044;BME280;34860;48.066;14.124;2023-08-08T08:57:03;96750.72;;;18.31;60.02
49044;BME280;34860;48.066;14.124;2023-08-08T08:59:52;96745.50;;;18.39;59.91
49044;BME280;34860;48.066;14.124;2023-08-08T09:02:41;96744.63;;;18.48;59.69
49044;BME280;34860;48.066;14.124;2023-08-08T09:05:30;96749.81;;;18.55;59.42
49044;BME280;34860;48.066;14.124;2023-08-08T09:08:19;96739.69;;;18.63;59.34
49044;BME280;34860;48.066;14.124;2023-08-08T09:11:07;96743.38;;;18.69;59.44
49044;BME280;34860;48.066;14.124;2023-08-08T09:13:55;96745.31;;;18.78;59.22
49044;BME280;34860;48.066;14.124;2023-08-08T09:16:44;96743.84;;;18.83;59.10
49044;BME280;34860;48.066;14.124;2023-08-08T09:19:34;96751.59;;;18.88;58.86
49044;BME280;34860;48.066;14.124;2023-08-08T09:22:22;96748.09;;;18.93;58.86
49044;BME280;34860;48.066;14.124;2023-08-08T09:25:10;96755.34;;;19.00;58.88
49044;BME280;34860;48.066;14.124;2023-08-08T09:27:58;96747.75;;;19.06;58.85
49044;BME280;34860;48.066;14.124;2023-08-08T09:30:48;96743.44;;;19.11;58.56
49044;BME280;34860;48.066;14.124;2023-08-08T09:33:38;96743.53;;;19.16;58.58
49044;BME280;34860;48.066;14.124;2023-08-08T09:36:28;96735.13;;;19.22;58.55
49044;BME280;34860;48.066;14.124;2023-08-08T09:39:16;96739.28;;;19.27;58.36
49044;BME280;34860;48.066;14.124;2023-08-08T09:42:07;96733.72;;;19.32;58.19
49044;BME280;34860;48.066;14.124;2023-08-08T09:44:58;96733.78;;;19.38;58.27
49044;BME280;34860;48.066;14.124;2023-08-08T09:47:46;96739.19;;;19.41;58.12
49044;BME280;34860;48.066;14.124;2023-08-08T09:50:35;96728.50;;;19.46;57.98
49044;BME280;34860;48.066;14.124;2023-08-08T09:53:25;96724.94;;;19.51;57.81
49044;BME280;34860;48.066;14.124;2023-08-08T09:56:14;96717.06;;;19.55;57.74
49044;BME280;34860;48.066;14.124;2023-08-08T09:59:05;96721.22;;;19.59;57.66
49044;BME280;34860;48.066;14.124;2023-08-08T10:01:53;96722.06;;;19.66;57.56
49044;BME280;34860;48.066;14.124;2023-08-08T10:04:44;96710.31;;;19.73;57.51
49044;BME280;34860;48.066;14.124;2023-08-08T10:07:32;96724.00;;;19.80;57.17
49044;BME280;34860;48.066;14.124;2023-08-08T10:10:22;96715.34;;;19.89;56.94
49044;BME280;34860;48.066;14.124;2023-08-08T10:13:18;96711.59;;;19.98;57.04
49044;BME280;34860;48.066;14.124;2023-08-08T10:16:08;96711.13;;;20.05;56.83
49044;BME280;34860;48.066;14.124;2023-08-08T10:18:58;96708.13;;;20.14;56.62
49044;BME280;34860;48.066;14.124;2023-08-08T10:21:46;96706.69;;;20.25;56.61
49044;BME280;34860;48.066;14.124;2023-08-08T10:24:35;96715.75;;;20.35;56.54
49044;BME280;34860;48.066;14.124;2023-08-08T10:27:31;96703.72;;;20.45;55.95
49044;BME280;34860;48.066;14.124;2023-08-08T10:30:19;96713.56;;;20.56;56.03
49044;BME280;34860;48.066;14.124;2023-08-08T10:33:15;96701.53;;;20.61;55.84
49044;BME280;34860;48.066;14.124;2023-08-08T10:36:05;96697.47;;;20.67;55.90
49044;BME280;34860;48.066;14.124;2023-08-08T10:38:57;96700.38;;;20.79;55.69
49044;BME280;34860;48.066;14.124;2023-08-08T10:41:47;96696.06;;;20.89;55.53
49044;BME280;34860;48.066;14.124;2023-08-08T10:44:41;96697.91;;;20.98;55.18
49044;BME280;34860;48.066;14.124;2023-08-08T10:47:31;96690.50;;;21.06;55.05
49044;BME280;34860;48.066;14.124;2023-08-08T10:50:22;96688.44;;;21.12;54.91
49044;BME280;34860;48.066;14.124;2023-08-08T10:53:10;96697.72;;;21.18;54.91
49044;BME280;34860;48.066;14.124;2023-08-08T10:56:01;96692.63;;;21.28;54.63
49044;BME280;34860;48.066;14.124;2023-08-08T10:58:49;96684.94;;;21.34;54.53
49044;BME280;34860;48.066;14.124;2023-08-08T11:01:40;96688.03;;;21.42;54.30
49044;BME280;34860;48.066;14.124;2023-08-08T11:04:28;96688.34;;;21.50;54.23
49044;BME280;34860;48.066;14.124;2023-08-08T11:07:18;96685.00;;;21.57;54.06
49044;BME280;34860;48.066;14.124;2023-08-08T11:10:07;96683.75;;;21.64;53.86
49044;BME280;34860;48.066;14.124;2023-08-08T11:12:56;96688.88;;;21.71;53.55
49044;BME280;34860;48.066;14.124;2023-08-08T11:15:45;96677.84;;;21.79;53.46
49044;BME280;34860;48.066;14.124;2023-08-08T11:18:34;96672.97;;;21.85;53.31
49044;BME280;34860;48.066;14.124;2023-08-08T11:21:23;96688.66;;;21.91;53.32
49044;BME280;34860;48.066;14.124;2023-08-08T11:24:12;96684.03;;;22.00;52.86
49044;BME280;34860;48.066;14.124;2023-08-08T11:27:00;96675.56;;;22.05;52.91
49044;BME280;34860;48.066;14.124;2023-08-08T11:29:49;96678.38;;;22.11;52.78
49044;BME280;34860;48.066;14.124;2023-08-08T11:32:37;96674.22;;;22.18;52.74
49044;BME280;34860;48.066;14.124;2023-08-08T11:35:27;96671.16;;;22.27;52.43
49044;BME280;34860;48.066;14.124;2023-08-08T11:38:16;96669.09;;;22.33;52.52
49044;BME280;34860;48.066;14.124;2023-08-08T11:41:04;96669.88;;;22.45;52.46
49044;BME280;34860;48.066;14.124;2023-08-08T11:43:53;96662.41;;;22.53;52.27
49044;BME280;34860;48.066;14.124;2023-08-08T11:46:43;96663.66;;;22.63;52.10
49044;BME280;34860;48.066;14.124;2023-08-08T11:49:40;96665.69;;;22.74;51.88
49044;BME280;34860;48.066;14.124;2023-08-08T11:52:29;96666.69;;;22.82;51.92
49044;BME280;34860;48.066;14.124;2023-08-08T11:55:17;96672.81;;;22.92;51.68
49044;BME280;34860;48.066;14.124;2023-08-08T11:58:12;96659.41;;;22.98;51.67
49044;BME280;34860;48.066;14.124;2023-08-08T12:01:02;96650.88;;;23.04;51.52
49044;BME280;34860;48.066;14.124;2023-08-08T12:03:50;96665.28;;;23.12;51.45
49044;BME280;34860;48.066;14.124;2023-08-08T12:06:38;96662.97;;;23.16;51.52
49044;BME280;34860;48.066;14.124;2023-08-08T12:09:31;96646.47;;;23.20;51.43
49044;BME280;34860;48.066;14.124;2023-08-08T12:12:20;96649.53;;;23.22;51.27
49044;BME280;34860;48.066;14.124;2023-08-08T12:15:09;96642.56;;;23.23;50.99
49044;BME280;34860;48.066;14.124;2023-08-08T12:18:01;96642.81;;;23.25;51.04
49044;BME280;34860;48.066;14.124;2023-08-08T12:20:50;96650.28;;;23.28;50.82
49044;BME280;34860;48.066;14.124;2023-08-08T12:23:38;96645.34;;;23.34;50.91
49044;BME280;34860;48.066;14.124;2023-08-08T12:26:27;96645.00;;;23.44;50.69
49044;BME280;34860;48.066;14.124;2023-08-08T12:29:15;96644.72;;;23.53;50.60
49044;BME280;34860;48.066;14.124;2023-08-08T12:32:04;96642.31;;;23.63;50.31
49044;BME280;34860;48.066;14.124;2023-08-08T12:34:54;96630.88;;;23.74;50.34
49044;BME280;34860;48.066;14.124;2023-08-08T12:37:44;96633.66;;;23.85;50.23
49044;BME280;34860;48.066;14.124;2023-08-08T12:40:32;96643.63;;;23.98;49.83
49044;BME280;34860;48.066;14.124;2023-08-08T12:43:21;96622.59;;;24.12;49.81
49044;BME280;34860;48.066;14.124;2023-08-08T12:46:09;96622.97;;;24.27;49.53
49044;BME280;34860;48.066;14.124;2023-08-08T12:48:57;96622.81;;;24.44;49.11
49044;BME280;34860;48.066;14.124;2023-08-08T12:51:50;96610.81;;;24.57;48.99
49044;BME280;34860;48.066;14.124;2023-08-08T12:54:38;96616.53;;;24.76;48.78
49044;BME280;34860;48.066;14.124;2023-08-08T12:57:26;96614.00;;;24.92;48.67
49044;BME280;34860;48.066;14.124;2023-08-08T13:00:16;96612.78;;;25.06;48.41
49044;BME280;34860;48.066;14.124;2023-08-08T13:03:04;96619.13;;;25.18;48.32
49044;BME280;34860;48.066;14.124;2023-08-08T13:05:52;96614.13;;;25.24;47.95
49044;BME280;34860;48.066;14.124;2023-08-08T13:08:40;96613.53;;;25.31;48.21
49044;BME280;34860;48.066;14.124;2023-08-08T13:11:28;96614.00;;;25.35;48.06
49044;BME280;34860;48.066;14.124;2023-08-08T13:14:16;96618.59;;;25.38;47.60
49044;BME280;34860;48.066;14.124;2023-08-08T13:17:06;96606.13;;;25.42;47.82
49044;BME280;34860;48.066;14.124;2023-08-08T13:19:54;96615.44;;;25.42;47.53
49044;BME280;34860;48.066;14.124;2023-08-08T13:22:42;96607.88;;;25.45;47.75
49044;BME280;34860;48.066;14.124;2023-08-08T13:25:30;96600.91;;;25.46;47.26
49044;BME280;34860;48.066;14.124;2023-08-08T13:28:20;96598.75;;;25.52;47.36
49044;BME280;34860;48.066;14.124;2023-08-08T13:31:08;96599.75;;;25.54;47.17
49044;BME280;34860;48.066;14.124;2023-08-08T13:33:58;96593.94;;;25.60;47.05
49044;BME280;34860;48.066;14.124;2023-08-08T13:36:46;96596.03;;;25.60;46.88
49044;BME280;34860;48.066;14.124;2023-08-08T13:39:34;96605.34;;;25.60;47.07
49044;BME280;34860;48.066;14.124;2023-08-08T13:42:22;96601.47;;;25.58;47.08
49044;BME280;34860;48.066;14.124;2023-08-08T13:45:10;96600.19;;;25.59;47.08
49044;BME280;34860;48.066;14.124;2023-08-08T13:47:58;96599.03;;;25.67;47.02
49044;BME280;34860;48.066;14.124;2023-08-08T13:50:49;96589.31;;;25.76;46.69
49044;BME280;34860;48.066;14.124;2023-08-08T13:53:37;96593.19;;;25.92;46.39
49044;BME280;34860;48.066;14.124;2023-08-08T13:56:25;96586.69;;;26.10;46.36
49044;BME280;34860;48.066;14.124;2023-08-08T13:59:13;96578.59;;;26.28;46.08
49044;BME280;34860;48.066;14.124;2023-08-08T14:02:02;96582.31;;;26.50;45.72
49044;BME280;34860;48.066;14.124;2023-08-08T14:04:50;96580.13;;;26.69;45.65
49044;BME280;34860;48.066;14.124;2023-08-08T14:07:40;96561.59;;;26.89;45.82
49044;BME280;34860;48.066;14.124;2023-08-08T14:10:28;96568.69;;;27.09;45.44
49044;BME280;34860;48.066;14.124;2023-08-08T14:13:16;96569.63;;;27.25;45.19
49044;BME280;34860;48.066;14.124;2023-08-08T14:16:05;96573.84;;;27.45;45.08
49044;BME280;34860;48.066;14.124;2023-08-08T14:18:53;96583.00;;;27.65;44.93
49044;BME280;34860;48.066;14.124;2023-08-08T14:21:41;96573.59;;;27.78;44.99
49044;BME280;34860;48.066;14.124;2023-08-08T14:24:31;96570.81;;;27.85;44.67
49044;BME280;34860;48.066;14.124;2023-08-08T14:27:19;96588.25;;;27.95;44.75
49044;BME280;34860;48.066;14.124;2023-08-08T14:30:08;96575.38;;;28.02;44.68
49044;BME280;34860;48.066;14.124;2023-08-08T14:32:58;96584.69;;;28.02;44.71
49044;BME280;34860;48.066;14.124;2023-08-08T14:35:47;96590.78;;;27.99;44.39
49044;BME280;34860;48.066;14.124;2023-08-08T14:38:35;96573.09;;;27.87;44.25
49044;BME280;34860;48.066;14.124;2023-08-08T14:41:25;96576.03;;;27.73;44.18
49044;BME280;34860;48.066;14.124;2023-08-08T14:44:13;96579.09;;;27.54;44.53